Time;durP1;ratioP1;P1;durP2;ratioP2;P2;SDS_P1;SDS_P2;PMS_P1;PMS_P2;Temp;Humidity;BMP_temperature;BMP_pressure;BME280_temperature;BME280_humidity;BME280_pressure;Samples;Min_cycle;Max_cycle;Signal;HPM_P1;HPM_P2
2024/04/02 00:03:28;;;;;;;1999.90;999.90;;;;;;;8.24;100.00;100067.28;10291650;28;20055;-66
2024/04/02 00:08:30;;;;;;;1999.90;999.90;;;;;;;7.88;100.00;100077.16;10290875;28;20059;-66
2024/04/02 00:13:32;;;;;;;1999.90;999.90;;;;;;;8.34;100.00;100087.53;10259116;28;20062;-66
2024/04/02 00:18:34;;;;;;;1999.90;999.90;;;;;;;8.12;100.00;100079.28;10259296;28;20059;-66
2024/04/02 00:23:35;;;;;;;1999.90;999.90;;;;;;;8.28;100.00;100084.44;10298455;28;20050;-66
2024/04/02 00:28:37;;;;;;;1999.90;999.90;;;;;;;8.27;100.00;100086.22;10298267;28;20051;-66
2024/04/02 00:33:38;;;;;;;1999.90;999.90;;;;;;;8.23;100.00;100089.91;10281940;28;20058;-66
2024/04/02 00:38:39;;;;;;;1999.90;999.90;;;;;;;7.95;100.00;100088.06;10297810;28;20410;-66
2024/04/02 00:43:41;;;;;;;1999.90;999.90;;;;;;;8.27;100.00;100096.66;10281543;28;20058;-66
2024/04/02 00:48:42;;;;;;;1999.90;999.90;;;;;;;8.12;100.00;100101.00;10281376;28;20486;-66
2024/04/02 00:53:44;;;;;;;1999.90;999.90;;;;;;;8.34;100.00;100113.59;10281485;28;20051;-66
2024/04/02 00:58:45;;;;;;;1999.90;999.90;;;;;;;8.28;100.00;100110.53;10296954;28;20486;-66
2024/04/02 01:03:46;;;;;;;1999.90;999.90;;;;;;;8.26;100.00;100120.22;10281535;28;20047;-66
2024/04/02 01:08:48;;;;;;;1999.90;999.90;;;;;;;8.24;100.00;100120.28;10296612;28;20055;-66
2024/04/02 01:13:51;;;;;;;1999.90;999.90;;;;;;;8.35;100.00;100123.13;10296299;28;20051;-66
2024/04/02 01:18:52;;;;;;;1999.90;999.90;;;;;;;8.44;100.00;100129.59;10280682;28;20083;-66
2024/04/02 01:23:53;;;;;;;1999.90;999.90;;;;;;;8.53;100.00;100129.03;10295760;28;20082;-66
2024/04/02 01:29:00;;;;;;;1999.90;999.90;;;;;;;8.32;100.00;100133.72;10279376;28;20046;-66
2024/04/02 01:34:02;;;;;;;1999.90;999.90;;;;;;;8.37;100.00;100136.03;10279644;28;20413;-66
2024/04/02 01:39:03;;;;;;;1999.90;999.90;;;;;;;8.16;100.00;100143.38;10295992;28;20059;-66
2024/04/02 01:44:05;;;;;;;1999.90;999.90;;;;;;;8.05;100.00;100136.16;10295807;28;20054;-66
2024/04/02 01:49:06;;;;;;;1999.90;999.90;;;;;;;7.77;100.00;100135.13;10278959;28;20066;-67
2024/04/02 01:54:08;;;;;;;1999.90;999.90;;;;;;;7.68;100.00;100135.63;10295394;28;20066;-67
2024/04/02 01:59:09;;;;;;;1999.90;999.90;;;;;;;7.57;100.00;100146.66;10295027;28;20055;-67
2024/04/02 02:04:10;;;;;;;1999.90;999.90;;;;;;;7.74;100.00;100148.31;10294203;28;20410;-67
2024/04/02 02:09:13;;;;;;;1999.90;999.90;;;;;;;7.68;100.00;100150.44;10293951;28;20046;-67
2024/04/02 02:14:15;;;;;;;1999.90;999.90;;;;;;;7.56;100.00;100157.16;10293946;28;20050;-67
2024/04/02 02:19:16;;;;;;;1999.90;999.90;;;;;;;7.36;100.00;100161.72;10278146;28;20081;-66
2024/04/02 02:24:17;;;;;;;1999.90;999.90;;;;;;;7.71;100.00;100156.31;10261977;28;20129;-66
2024/04/02 02:29:23;;;;;;;1999.90;999.90;;;;;;;7.43;100.00;100167.41;10277247;28;20055;-66
2024/04/02 02:34:24;;;;;;;1999.90;999.90;;;;;;;7.32;100.00;100167.16;10293845;28;20062;-66
2024/04/02 02:39:26;;;;;;;1999.90;999.90;;;;;;;7.64;100.00;100165.41;10293814;28;20051;-66
2024/04/02 02:44:28;;;;;;;1999.90;999.90;;;;;;;7.57;100.00;100171.88;10292271;28;20055;-66
2024/04/02 02:49:29;;;;;;;1999.90;999.90;;;;;;;7.36;100.00;100181.69;10276727;28;20065;-66
2024/04/02 02:54:30;;;;;;;1999.90;999.90;;;;;;;7.53;100.00;100181.63;10277238;28;20058;-66
2024/04/02 02:59:32;;;;;;;1999.90;999.90;;;;;;;7.31;100.00;100189.72;10292679;28;20051;-66
2024/04/02 03:04:33;;;;;;;1999.90;999.90;;;;;;;7.16;100.00;100195.75;10275841;28;20062;-67
2024/04/02 03:09:36;;;;;;;1999.90;999.90;;;;;;;7.36;100.00;100190.34;10291816;28;20054;-66
2024/04/02 03:14:37;;;;;;;1999.90;999.90;;;;;;;7.60;100.00;100188.19;10292239;28;20081;-66
2024/04/02 03:19:39;;;;;;;1999.90;999.90;;;;;;;7.72;100.00;100191.88;10292638;28;20054;-67
2024/04/02 03:24:40;;;;;;;1999.90;999.90;;;;;;;7.58;100.00;100192.63;10292301;28;20067;-66
2024/04/02 03:29:42;;;;;;;1999.90;999.90;;;;;;;7.17;100.00;100200.06;10291850;28;20080;-66
2024/04/02 03:34:43;;;;;;;1999.90;999.90;;;;;;;7.41;100.00;100211.78;10275994;28;20061;-66
2024/04/02 03:39:44;;;;;;;1999.90;999.90;;;;;;;7.53;100.00;100215.50;10292261;28;20055;-66
2024/04/02 03:44:46;;;;;;;1999.90;999.90;;;;;;;7.40;100.00;100212.69;10276088;28;20059;-66
2024/04/02 03:49:47;;;;;;;1999.90;999.90;;;;;;;7.47;100.00;100230.59;10275520;28;20058;-66
2024/04/02 03:54:49;;;;;;;1999.90;999.90;;;;;;;7.37;100.00;100225.88;10293578;28;20113;-66
2024/04/02 03:59:50;;;;;;;1999.90;999.90;;;;;;;7.58;100.00;100220.44;10300082;28;20057;-66
2024/04/02 04:04:51;;;;;;;1999.90;999.90;;;;;;;7.42;100.00;100226.47;10299237;28;20063;-66
2024/04/02 04:09:53;;;;;;;1999.90;999.90;;;;;;;7.41;100.00;100236.97;10298776;28;20058;-66
2024/04/02 04:14:54;;;;;;;1999.90;999.90;;;;;;;7.54;100.00;100234.56;10299436;28;20058;-66
2024/04/02 04:19:55;;;;;;;1999.90;999.90;;;;;;;7.52;100.00;100250.28;10299099;28;20062;-66
2024/04/02 04:25:02;;;;;;;1999.90;999.90;;;;;;;7.52;100.00;100252.03;10364709;23;20049;-67
2024/04/02 04:30:06;;;;;;;1999.90;999.90;;;;;;;7.23;100.00;100259.63;10419964;28;20431;-67
2024/04/02 04:35:08;;;;;;;1999.90;999.90;;;;;;;7.48;100.00;100271.34;10403464;28;20062;-67
2024/04/02 04:40:10;;;;;;;1999.90;999.90;;;;;;;7.36;100.00;100271.09;10420232;28;20053;-67
2024/04/02 04:45:11;;;;;;;1999.90;999.90;;;;;;;7.27;100.00;100284.56;10419964;28;20057;-67
2024/04/02 04:50:12;;;;;;;1999.90;999.90;;;;;;;7.37;100.00;100284.94;10419125;28;20068;-67
2024/04/02 04:55:14;;;;;;;1999.90;999.90;;;;;;;7.32;100.00;100279.97;10402876;28;20049;-67
2024/04/02 05:00:15;;;;;;;1999.90;999.90;;;;;;;7.51;100.00;100286.81;10418901;28;20052;-67
2024/04/02 05:05:17;;;;;;;1999.90;999.90;;;;;;;7.38;100.00;100299.63;10417183;28;20058;-67
2024/04/02 05:10:18;;;;;;;1999.90;999.90;;;;;;;7.49;100.00;100312.09;10418028;28;20426;-67
2024/04/02 05:15:20;;;;;;;1999.90;999.90;;;;;;;7.62;100.00;100310.53;10418185;28;20075;-67
2024/04/02 05:20:21;;;;;;;1999.90;999.90;;;;;;;7.80;100.00;100311.31;10417988;28;20050;-67
2024/04/02 05:25:23;;;;;;;1999.90;999.90;;;;;;;7.88;100.00;100316.97;10418009;28;20061;-67
2024/04/02 05:30:24;;;;;;;1999.90;999.90;;;;;;;7.94;100.00;100313.19;10417431;28;20045;-67
2024/04/02 05:35:26;;;;;;;1999.90;999.90;;;;;;;7.94;100.00;100323.63;10416887;28;20409;-67
2024/04/02 05:40:27;;;;;;;1999.90;999.90;;;;;;;7.75;100.00;100326.34;10417714;28;20053;-67
2024/04/02 05:45:28;;;;;;;1999.90;999.90;;;;;;;7.88;100.00;100344.78;10401133;28;20053;-67
2024/04/02 05:50:30;;;;;;;1999.90;999.90;;;;;;;7.87;100.00;100340.50;10416437;28;20123;-67
2024/04/02 05:55:31;;;;;;;1999.90;999.90;;;;;;;8.00;100.00;100342.38;10399718;28;20488;-67
2024/04/02 06:00:33;;;;;;;1999.90;999.90;;;;;;;8.21;100.00;100349.13;10400355;28;20053;-67
2024/04/02 06:05:36;;;;;;;1999.90;999.90;;;;;;;8.13;100.00;100339.94;10415698;28;20061;-67
2024/04/02 06:10:37;;;;;;;1999.90;999.90;;;;;;;8.05;100.00;100351.72;10399288;28;20111;-68
2024/04/02 06:15:39;;;;;;;1999.90;999.90;;;;;;;8.00;100.00;100357.16;10399720;28;20057;-67
2024/04/02 06:20:40;;;;;;;1999.90;999.90;;;;;;;8.18;100.00;100353.56;10415006;28;20065;-67
2024/04/02 06:25:48;;;;;;;1999.90;999.90;;;;;;;8.34;100.00;100357.97;10415404;28;20049;-67
2024/04/02 06:30:49;;;;;;;1999.90;999.90;;;;;;;8.51;100.00;100357.06;10399312;28;20050;-67
2024/04/02 06:35:50;;;;;;;1999.90;999.90;;;;;;;9.06;100.00;100363.50;10415433;28;20107;-67
2024/04/02 06:40:52;;;;;;;1999.90;999.90;;;;;;;8.88;100.00;100366.25;10415313;28;20057;-67
2024/04/02 06:45:58;;;;;;;1999.90;999.90;;;;;;;9.04;100.00;100365.38;10414495;28;20049;-68
2024/04/02 06:51:04;;;;;;;1999.90;999.90;;;;;;;9.20;100.00;100367.94;10415144;28;20088;-67
2024/04/02 06:56:06;;;;;;;1999.90;999.90;;;;;;;9.04;100.00;100367.97;10397887;28;20408;-67
2024/04/02 07:01:08;;;;;;;1999.90;999.90;;;;;;;9.11;100.00;100375.38;10414767;28;20065;-68
2024/04/02 07:06:09;;;;;;;1999.90;999.90;;;;;;;9.30;100.00;100388.19;10413532;28;20061;-67
2024/04/02 07:11:11;;;;;;;1999.90;999.90;;;;;;;9.44;100.00;100389.16;10413966;28;20080;-67
2024/04/02 07:16:12;;;;;;;1999.90;999.90;;;;;;;9.46;100.00;100395.13;10414034;28;20053;-67
2024/04/02 07:21:14;;;;;;;1999.90;999.90;;;;;;;9.42;100.00;100399.69;10413324;28;20412;-68
2024/04/02 07:26:16;;;;;;;1999.90;999.90;;;;;;;9.57;100.00;100395.34;10413355;28;20054;-67
2024/04/02 07:31:17;;;;;;;1999.90;999.90;;;;;;;9.59;100.00;100401.31;10396449;28;20103;-66
2024/04/02 07:36:20;;;;;;;1999.90;999.90;;;;;;;9.82;100.00;100409.56;10397404;28;20121;-66
2024/04/02 07:41:21;;;;;;;1999.90;999.90;;;;;;;9.67;100.00;100414.78;10397548;28;20057;-67
2024/04/02 07:46:23;;;;;;;1999.90;999.90;;;;;;;9.57;100.00;100418.03;10396550;28;20050;-67
2024/04/02 07:51:24;;;;;;;1999.90;999.90;;;;;;;9.94;100.00;100421.91;10412958;28;20061;-67
2024/04/02 07:56:25;;;;;;;1999.90;999.90;;;;;;;9.82;100.00;100425.25;10412398;28;20042;-67
2024/04/02 08:01:28;;;;;;;1999.90;999.90;;;;;;;9.56;100.00;100432.84;10412949;28;20064;-67
2024/04/02 08:06:29;;;;;;;1999.90;999.90;;;;;;;10.13;100.00;100434.69;10396717;28;20061;-68
2024/04/02 08:11:31;;;;;;;1999.90;999.90;;;;;;;10.27;100.00;100439.09;10412599;28;20053;-68
2024/04/02 08:16:33;;;;;;;1999.90;999.90;;;;;;;10.49;100.00;100435.13;10412853;28;20144;-67
2024/04/02 08:21:34;;;;;;;1999.90;999.90;;;;;;;10.09;100.00;100437.59;10380049;28;20054;-68
2024/04/02 08:26:35;;;;;;;1999.90;999.90;;;;;;;10.26;100.00;100447.03;10412208;28;20508;-68
2024/04/02 08:31:37;;;;;;;1999.90;999.90;;;;;;;10.08;100.00;100451.59;10412330;28;20053;-67
2024/04/02 08:36:39;;;;;;;1999.90;999.90;;;;;;;10.16;99.43;100462.44;10380020;28;20057;-67
2024/04/02 08:41:41;;;;;;;1999.90;999.90;;;;;;;9.98;100.00;100462.59;10413580;28;20472;-68
2024/04/02 08:46:43;;;;;;;1999.90;999.90;;;;;;;10.33;100.00;100471.91;10419261;28;20400;-68
2024/04/02 08:51:44;;;;;;;1999.90;999.90;;;;;;;10.22;98.99;100480.34;10419748;28;20049;-67
2024/04/02 08:56:46;;;;;;;1999.90;999.90;;;;;;;10.64;96.96;100469.97;10402694;28;20054;-68
2024/04/02 09:01:48;;;;;;;1999.90;999.90;;;;;;;11.27;93.62;100464.16;10385823;28;20057;-67
2024/04/02 09:06:50;;;;;;;1999.90;999.90;;;;;;;10.89;92.31;100464.91;10402936;28;20046;-67
2024/04/02 09:11:51;;;;;;;1999.90;999.90;;;;;;;10.97;92.47;100469.63;10402500;28;20111;-67
2024/04/02 09:16:54;;;;;;;1999.90;999.90;;;;;;;11.00;92.50;100477.28;10402117;28;20054;-68
2024/04/02 09:21:55;;;;;;;1999.90;999.90;;;;;;;10.76;90.40;100490.19;10417943;28;20053;-67
2024/04/02 09:26:56;;;;;;;1999.90;999.90;;;;;;;11.04;90.30;100485.78;10401281;28;20049;-68
2024/04/02 09:31:59;;;;;;;1999.90;999.90;;;;;;;11.02;89.14;100488.50;10417220;28;20053;-67
2024/04/02 09:37:12;;;;;;;1999.90;999.90;;;;;;;11.70;87.52;100484.94;10401632;28;20103;-67
2024/04/02 09:42:15;;;;;;;1999.90;999.90;;;;;;;11.82;86.05;100478.00;10417609;28;20057;-68
2024/04/02 09:47:18;;;;;;;1999.90;999.90;;;;;;;11.66;85.71;100474.75;10401012;28;20080;-67
2024/04/02 09:52:23;;;;;;;1999.90;999.90;;;;;;;12.29;82.49;100482.75;10400691;28;20065;-68
2024/04/02 09:57:25;;;;;;;1999.90;999.90;;;;;;;12.38;81.28;100487.38;10400154;28;20041;-68
2024/04/02 10:02:28;;;;;;;1999.90;999.90;;;;;;;12.32;81.42;100488.63;10399881;28;20054;-68
2024/04/02 10:07:30;;;;;;;1999.90;999.90;;;;;;;12.61;76.83;100491.84;10400225;28;20049;-68
2024/04/02 10:12:33;;;;;;;1999.90;999.90;;;;;;;12.41;77.33;100476.66;10415620;28;20084;-68
2024/04/02 10:17:35;;;;;;;1999.90;999.90;;;;;;;11.93;78.96;100486.97;10400016;28;20111;-67
2024/04/02 10:22:37;;;;;;;1999.90;999.90;;;;;;;12.31;80.56;100496.63;10399716;28;20057;-67
2024/04/02 10:27:44;;;;;;;1999.90;999.90;;;;;;;11.52;83.07;100499.25;10415399;28;20476;-67
2024/04/02 10:32:46;;;;;;;1999.90;999.90;;;;;;;11.77;85.21;100495.00;10399580;28;20060;-67
2024/04/02 10:37:49;;;;;;;1999.90;999.90;;;;;;;11.40;86.97;100507.91;10398149;28;20445;-67
2024/04/02 10:42:52;;;;;;;1999.90;999.90;;;;;;;11.05;93.46;100524.16;10415398;28;20057;-68
2024/04/02 10:47:53;;;;;;;1999.90;999.90;;;;;;;10.75;100.00;100528.59;10398496;28;20045;-65
2024/04/02 10:52:55;;;;;;;1999.90;999.90;;;;;;;11.58;100.00;100532.94;10414990;28;20064;-66
2024/04/02 10:58:00;;;;;;;1999.90;999.90;;;;;;;10.69;100.00;100523.75;10414887;28;20046;-67
2024/04/02 11:03:02;;;;;;;1999.90;999.90;;;;;;;10.87;100.00;100531.41;10397980;28;20056;-66
2024/04/02 11:08:04;;;;;;;1999.90;999.90;;;;;;;11.37;100.00;100527.31;10397288;28;20064;-66
2024/04/02 11:13:05;;;;;;;1999.90;999.90;;;;;;;11.48;100.00;100524.84;10414206;28;20049;-66
2024/04/02 11:18:08;;;;;;;1999.90;999.90;;;;;;;11.46;100.00;100524.09;10413974;28;20053;-66
2024/04/02 11:28:30;;;;;;;1999.90;999.90;;;;;;;11.60;100.00;100532.81;10399829;28;20052;-66
2024/04/02 11:33:32;;;;;;;1999.90;999.90;;;;;;;11.67;100.00;100531.50;10413943;28;20057;-66
2024/04/02 11:38:37;;;;;;;1999.90;999.90;;;;;;;11.62;100.00;100529.19;10413852;28;20049;-66
2024/04/02 11:43:38;;;;;;;1999.90;999.90;;;;;;;11.20;100.00;100536.28;10413737;28;20113;-66
2024/04/02 11:48:40;;;;;;;1999.90;999.90;;;;;;;12.11;100.00;100532.94;10413173;28;20049;-66
2024/04/02 11:53:41;;;;;;;1999.90;999.90;;;;;;;11.77;100.00;100537.81;10413497;28;20049;-66
2024/04/02 12:04:03;;;;;;;1999.90;999.90;;;;;;;11.66;100.00;100554.25;10413120;28;20057;-66
2024/04/02 12:09:04;;;;;;;1999.90;999.90;;;;;;;10.75;100.00;100557.41;10412826;28;20092;-66
2024/04/02 12:14:06;;;;;;;1999.90;999.90;;;;;;;11.00;100.00;100561.13;10412835;28;20054;-67
2024/04/02 12:19:07;;;;;;;1999.90;999.90;;;;;;;11.04;100.00;100562.59;10419879;28;20056;-66
2024/04/02 12:24:08;;;;;;;1999.90;999.90;;;;;;;12.14;100.00;100553.75;10420584;28;20069;-67
2024/04/02 12:29:10;;;;;;;1999.90;999.90;;;;;;;11.87;100.00;100559.03;10419988;28;20455;-67
2024/04/02 12:34:11;;;;;;;1999.90;999.90;;;;;;;11.45;100.00;100563.53;10419747;28;20064;-67
2024/04/02 12:39:13;;;;;;;1999.90;999.90;;;;;;;11.47;100.00;100561.66;10403319;28;20057;-67
2024/04/02 12:44:15;;;;;;;1999.90;999.90;;;;;;;11.73;100.00;100559.09;10420024;28;20053;-67
2024/04/02 12:49:16;;;;;;;1999.90;999.90;;;;;;;11.21;100.00;100547.59;10419287;28;20095;-67
2024/04/02 12:54:18;;;;;;;1999.90;999.90;;;;;;;11.65;100.00;100559.59;10419884;28;20060;-67
2024/04/02 12:59:20;;;;;;;1999.90;999.90;;;;;;;11.81;100.00;100556.81;10419553;28;20049;-67
2024/04/02 13:04:25;;;;;;;1999.90;999.90;;;;;;;11.74;100.00;100552.91;10419221;28;20057;-66
2024/04/02 13:09:28;;;;;;;1999.90;999.90;;;;;;;11.64;100.00;100552.69;10418294;28;20049;-67
2024/04/02 13:14:29;;;;;;;1999.90;999.90;;;;;;;11.93;100.00;100544.69;10418874;28;20064;-67
2024/04/02 13:19:30;;;;;;;1999.90;999.90;;;;;;;11.82;100.00;100543.59;10418557;28;20053;-67
2024/04/02 13:24:32;;;;;;;1999.90;999.90;;;;;;;11.57;100.00;100547.00;10418041;28;20057;-67
2024/04/02 13:29:33;;;;;;;1999.90;999.90;;;;;;;11.77;100.00;100534.31;10416975;28;20056;-66
2024/04/02 13:34:35;;;;;;;1999.90;999.90;;;;;;;11.64;100.00;100536.94;10401196;28;20060;-67
2024/04/02 13:39:36;;;;;;;1999.90;999.90;;;;;;;11.59;100.00;100549.53;10401326;28;20053;-67
2024/04/02 13:44:37;;;;;;;1999.90;999.90;;;;;;;11.48;100.00;100539.72;10417595;28;20060;-67
2024/04/02 13:49:39;;;;;;;1999.90;999.90;;;;;;;11.48;100.00;100537.97;10416689;28;20046;-67
2024/04/02 13:54:40;;;;;;;1999.90;999.90;;;;;;;11.82;100.00;100530.47;10417475;28;20053;-66
2024/04/02 13:59:43;;;;;;;1999.90;999.90;;;;;;;11.88;100.00;100524.81;10400538;28;20057;-66
2024/04/02 14:04:44;;;;;;;1999.90;999.90;;;;;;;11.60;100.00;100522.34;10417025;28;20054;-66
2024/04/02 14:09:46;;;;;;;1999.90;999.90;;;;;;;11.26;100.00;100524.53;10415928;28;20054;-66
2024/04/02 14:14:47;;;;;;;1999.90;999.90;;;;;;;11.64;100.00;100531.69;10416481;28;20135;-66
2024/04/02 14:19:50;;;;;;;1999.90;999.90;;;;;;;11.65;100.00;100528.97;10416046;28;20061;-67
2024/04/02 14:24:52;;;;;;;1999.90;999.90;;;;;;;11.53;100.00;100516.66;10415800;28;20057;-67
2024/04/02 14:29:53;;;;;;;1999.90;999.90;;;;;;;11.58;100.00;100526.84;10415542;28;20049;-67
2024/04/02 14:34:54;;;;;;;1999.90;999.90;;;;;;;11.30;100.00;100516.41;10415673;28;20076;-66
2024/04/02 14:39:56;;;;;;;1999.90;999.90;;;;;;;11.25;100.00;100531.56;10414711;28;20448;-67
2024/04/02 14:44:57;;;;;;;1999.90;999.90;;;;;;;10.94;100.00;100528.31;10415262;28;20057;-66
2024/04/02 14:49:58;;;;;;;1999.90;999.90;;;;;;;11.14;100.00;100542.72;10414545;28;20046;-67
2024/04/02 14:55:00;;;;;;;1999.90;999.90;;;;;;;11.00;100.00;100540.16;10414672;28;20057;-66
2024/04/02 15:00:01;;;;;;;1999.90;999.90;;;;;;;10.75;100.00;100551.34;10414257;28;20408;-66
2024/04/02 15:05:04;;;;;;;1999.90;999.90;;;;;;;10.68;100.00;100548.25;10414321;28;20064;-66
2024/04/02 15:10:06;;;;;;;1999.90;999.90;;;;;;;10.76;100.00;100559.09;10397520;28;20056;-66
2024/04/02 15:15:09;;;;;;;1999.90;999.90;;;;;;;11.24;100.00;100547.41;10397680;28;20052;-66
2024/04/02 15:20:11;;;;;;;1999.90;999.90;;;;;;;11.68;100.00;100535.78;10414181;28;20041;-66
2024/04/02 15:25:12;;;;;;;1999.90;999.90;;;;;;;11.69;100.00;100546.19;10413695;28;20061;-66
2024/04/02 15:30:14;;;;;;;1999.90;999.90;;;;;;;11.46;100.00;100547.69;10413349;28;20045;-66
2024/04/02 15:35:16;;;;;;;1999.90;999.90;;;;;;;11.27;100.00;100536.72;10413330;28;20489;-66
2024/04/02 15:40:17;;;;;;;1999.90;999.90;;;;;;;11.11;100.00;100542.09;10396945;28;20059;-66
2024/04/02 15:45:21;;;;;;;1999.90;999.90;;;;;;;11.59;100.00;100534.63;10413315;28;20408;-66
2024/04/02 15:50:23;;;;;;;1999.90;999.90;;;;;;;11.02;100.00;100535.66;10414560;28;20061;-66
2024/04/02 15:55:24;;;;;;;1999.90;999.90;;;;;;;11.31;100.00;100530.31;10421918;28;20053;-66
2024/04/02 16:00:26;;;;;;;1999.90;999.90;;;;;;;10.93;100.00;100536.25;10421374;28;20060;-66
2024/04/02 16:05:27;;;;;;;1999.90;999.90;;;;;;;11.07;100.00;100538.00;10421529;28;20053;-66
2024/04/02 16:10:28;;;;;;;1999.90;999.90;;;;;;;11.36;100.00;100540.53;10420793;28;20050;-66
2024/04/02 16:15:30;;;;;;;1999.90;999.90;;;;;;;11.60;100.00;100559.03;10421330;28;20057;-66
2024/04/02 16:20:35;;;;;;;1999.90;999.90;;;;;;;11.30;100.00;100555.72;10420389;28;20045;-67
2024/04/02 16:25:37;;;;;;;1999.90;999.90;;;;;;;11.16;100.00;100555.72;10419815;28;20493;-66
2024/04/02 16:30:38;;;;;;;1999.90;999.90;;;;;;;11.08;100.00;100563.28;10419989;28;20052;-66
2024/04/02 16:35:40;;;;;;;1999.90;999.90;;;;;;;11.22;100.00;100570.25;10420322;28;20057;-66
2024/04/02 16:40:42;;;;;;;1999.90;999.90;;;;;;;11.27;100.00;100578.66;10396097;22;20096;-66
2024/04/02 16:45:43;;;;;;;1999.90;999.90;;;;;;;11.29;100.00;100582.00;10379002;28;20321;-66
2024/04/02 16:50:45;;;;;;;1999.90;999.90;;;;;;;11.31;100.00;100570.50;10378400;28;20054;-66
2024/04/02 16:55:46;;;;;;;1999.90;999.90;;;;;;;11.40;100.00;100590.03;10362353;28;20061;-66
2024/04/02 17:00:49;;;;;;;1999.90;999.90;;;;;;;11.34;100.00;100585.19;10361740;28;20081;-66
2024/04/02 17:05:51;;;;;;;1999.90;999.90;;;;;;;11.09;100.00;100589.34;10361197;28;20065;-66
2024/04/02 17:11:08;;;;;;;1999.90;999.90;;;;;;;11.15;100.00;100588.13;10361067;28;20053;-66
2024/04/02 17:16:09;;;;;;;1999.90;999.90;;;;;;;10.87;100.00;100587.22;10377313;28;20050;-69
2024/04/02 17:21:11;;;;;;;1999.90;999.90;;;;;;;10.92;100.00;100587.78;10377636;28;20057;-67
2024/04/02 17:26:13;;;;;;;1999.90;999.90;;;;;;;10.96;100.00;100605.00;10377162;28;20085;-67
2024/04/02 17:31:14;;;;;;;1999.90;999.90;;;;;;;10.93;100.00;100612.22;10360405;28;20042;-67
2024/04/02 17:36:15;;;;;;;1999.90;999.90;;;;;;;11.02;100.00;100616.03;10377069;28;20108;-66
2024/04/02 17:41:17;;;;;;;1999.90;999.90;;;;;;;10.85;100.00;100617.09;10360283;28;20046;-66
2024/04/02 17:46:18;;;;;;;1999.90;999.90;;;;;;;10.91;100.00;100617.53;10360259;28;20054;-67
2024/04/02 17:51:20;;;;;;;1999.90;999.90;;;;;;;10.83;100.00;100627.66;10343568;28;20069;-67
2024/04/02 17:56:21;;;;;;;1999.90;999.90;;;;;;;10.63;100.00;100631.47;10360041;28;20065;-67
2024/04/02 18:01:22;;;;;;;1999.90;999.90;;;;;;;10.55;100.00;100641.56;10375597;28;20104;-67
2024/04/02 18:06:26;;;;;;;1999.90;999.90;;;;;;;10.61;100.00;100633.34;10359667;28;20053;-67
2024/04/02 18:11:31;;;;;;;1999.90;999.90;;;;;;;10.66;100.00;100635.66;10358822;28;20485;-67
2024/04/02 18:16:32;;;;;;;1999.90;999.90;;;;;;;10.65;100.00;100644.47;10342910;28;20049;-67
2024/04/02 18:21:34;;;;;;;1999.90;999.90;;;;;;;10.72;100.00;100646.63;10358138;28;20085;-67
2024/04/02 18:26:36;;;;;;;1999.90;999.90;;;;;;;10.68;100.00;100655.59;10357892;28;20501;-66
2024/04/02 18:31:37;;;;;;;1999.90;999.90;;;;;;;10.55;100.00;100647.63;10342739;28;20062;-66
2024/04/02 18:36:39;;;;;;;1999.90;999.90;;;;;;;10.44;100.00;100655.31;10374256;28;20050;-67
2024/04/02 18:41:41;;;;;;;1999.90;999.90;;;;;;;10.54;100.00;100656.44;10374138;28;20061;-66
2024/04/02 18:46:42;;;;;;;1999.90;999.90;;;;;;;10.40;100.00;100688.63;10374079;28;20056;-66
2024/04/02 18:51:43;;;;;;;1999.90;999.90;;;;;;;10.40;100.00;100685.19;10373441;28;20058;-67
2024/04/02 18:56:45;;;;;;;1999.90;999.90;;;;;;;10.11;100.00;100682.44;10373913;28;20149;-67
2024/04/02 19:01:46;;;;;;;1999.90;999.90;;;;;;;10.26;100.00;100683.34;10373971;28;20057;-67
2024/04/02 19:06:47;;;;;;;1999.90;999.90;;;;;;;9.92;100.00;100684.41;10373133;28;20053;-66
2024/04/02 19:11:49;;;;;;;1999.90;999.90;;;;;;;10.12;100.00;100688.53;10372715;28;20076;-66
2024/04/02 19:16:52;;;;;;;1999.90;999.90;;;;;;;10.08;100.00;100693.09;10373410;28;20057;-67
2024/04/02 19:21:53;;;;;;;1999.90;999.90;;;;;;;9.99;100.00;100699.69;10373509;28;20049;-67
2024/04/02 19:26:54;;;;;;;1999.90;999.90;;;;;;;9.96;100.00;100689.41;10372534;28;20099;-67
2024/04/02 19:31:56;;;;;;;1999.90;999.90;;;;;;;9.70;100.00;100698.72;10372654;28;20489;-67
2024/04/02 19:36:57;;;;;;;1999.90;999.90;;;;;;;9.60;100.00;100698.38;10373269;28;20076;-67
2024/04/02 19:41:59;;;;;;;1999.90;999.90;;;;;;;9.35;100.00;100701.47;10355710;28;20069;-67
2024/04/02 19:47:00;;;;;;;1999.90;999.90;;;;;;;9.32;100.00;100699.03;10371712;28;20046;-66
2024/04/02 19:52:01;;;;;;;1999.90;999.90;;;;;;;9.42;100.00;100692.38;10372430;28;20065;-67
2024/04/02 19:57:03;;;;;;;1999.90;999.90;;;;;;;9.10;100.00;100684.50;10372587;28;20046;-67
2024/04/02 20:02:05;;;;;;;1999.90;999.90;;;;;;;9.07;100.00;100684.66;10372427;28;20061;-67
2024/04/02 20:07:06;;;;;;;1999.90;999.90;;;;;;;9.33;100.00;100684.19;10372418;28;20053;-66
2024/04/02 20:12:08;;;;;;;1999.90;999.90;;;;;;;9.17;100.00;100685.00;10372439;28;20061;-67
2024/04/02 20:17:09;;;;;;;1999.90;999.90;;;;;;;8.99;100.00;100678.97;10372614;28;20050;-66
2024/04/02 20:22:10;;;;;;;1999.90;999.90;;;;;;;9.01;100.00;100682.38;10371646;28;20413;-67
2024/04/02 20:27:12;;;;;;;1999.90;999.90;;;;;;;8.96;100.00;100687.00;10371480;28;20046;-68
2024/04/02 20:32:13;;;;;;;1999.90;999.90;;;;;;;8.89;100.00;100678.63;10371220;28;20053;-67
2024/04/02 20:37:15;;;;;;;1999.90;999.90;;;;;;;8.96;100.00;100681.78;10373443;28;20117;-66
2024/04/02 20:42:16;;;;;;;1999.90;999.90;;;;;;;8.89;100.00;100670.81;10379576;28;20108;-67
2024/04/02 20:47:18;;;;;;;1999.90;999.90;;;;;;;8.96;100.00;100675.69;10378731;28;20057;-66
2024/04/02 20:52:19;;;;;;;1999.90;999.90;;;;;;;8.99;100.00;100676.38;10346336;28;20057;-66
2024/04/02 20:57:21;;;;;;;1999.90;999.90;;;;;;;8.99;100.00;100672.91;10378692;28;20057;-66
2024/04/02 21:02:22;;;;;;;1999.90;999.90;;;;;;;9.02;100.00;100672.75;10378438;28;20050;-66
2024/04/02 21:07:25;;;;;;;1999.90;999.90;;;;;;;8.95;100.00;100672.25;10378326;28;20108;-67
2024/04/02 21:12:26;;;;;;;1999.90;999.90;;;;;;;8.90;100.00;100667.25;10377242;28;20057;-66
2024/04/02 21:17:29;;;;;;;1999.90;999.90;;;;;;;8.85;100.00;100666.66;10377832;28;20050;-66
2024/04/02 21:22:31;;;;;;;1999.90;999.90;;;;;;;8.72;100.00;100665.59;10377739;28;20146;-67
2024/04/02 21:27:32;;;;;;;1999.90;999.90;;;;;;;8.91;100.00;100665.50;10377172;28;20045;-67
2024/04/02 21:32:34;;;;;;;1999.90;999.90;;;;;;;8.76;100.00;100664.53;10360946;28;20054;-67
2024/04/02 21:37:35;;;;;;;1999.90;999.90;;;;;;;8.92;100.00;100670.63;10376927;28;20060;-67
2024/04/02 21:42:37;;;;;;;1999.90;999.90;;;;;;;8.80;100.00;100675.66;10377165;28;20054;-67
2024/04/02 21:48:00;;;;;;;1999.90;999.90;;;;;;;8.98;100.00;100671.22;10375753;28;20057;-66
2024/04/02 21:53:02;;;;;;;1999.90;999.90;;;;;;;9.09;100.00;100685.44;10360278;28;20058;-67
2024/04/02 21:58:03;;;;;;;1999.90;999.90;;;;;;;9.04;100.00;100687.41;10375900;28;20076;-67